createdAt,value
2018-03-03T00:01:15.001Z,20.58
2018-03-03T00:03:44.025Z,22.33
2018-03-03T00:06:12.170Z,21.12
2018-03-03T00:08:40.358Z,19.87
2018-03-03T00:11:08.515Z,19.80
2018-03-03T00:13:36.666Z,20.77
2018-03-03T00:16:05.614Z,20.30
2018-03-03T00:18:33.766Z,19.02
2018-03-03T00:21:01.906Z,20.02
2018-03-03T00:23:30.841Z,21.50
2018-03-03T00:25:58.986Z,20.58
2018-03-03T00:28:27.129Z,22.45
2018-03-03T00:30:55.286Z,20.33
2018-03-03T00:33:23.528Z,20.52
2018-03-03T00:35:51.675Z,20.10
2018-03-03T00:38:19.879Z,19.48
2018-03-03T00:40:48.225Z,20.08
2018-03-03T00:43:16.371Z,18.98
2018-03-03T00:45:44.526Z,18.33
2018-03-03T00:48:12.674Z,20.50
2018-03-03T00:50:40.835Z,20.55
2018-03-03T00:53:09.430Z,19.50
2018-03-03T00:55:37.573Z,19.85
2018-03-03T00:58:05.714Z,20.83
2018-03-03T01:00:33.879Z,19.35
2018-03-03T01:03:02.032Z,21.62
2018-03-03T01:05:30.198Z,20.02
2018-03-03T01:07:58.389Z,20.02
2018-03-03T01:10:26.635Z,20.17
2018-03-03T01:12:54.778Z,19.25
2018-03-03T01:15:23.711Z,26.40
2018-03-03T01:17:51.869Z,19.62
2018-03-03T01:20:20.139Z,17.83
2018-03-03T01:22:48.298Z,19.37
2018-03-03T01:25:16.465Z,17.80
2018-03-03T01:27:44.622Z,19.20
2018-03-03T01:30:13.557Z,17.55
2018-03-03T01:32:41.725Z,20.15
2018-03-03T01:35:09.892Z,20.15
2018-03-03T01:37:38.067Z,18.95
2018-03-03T01:40:06.256Z,19.12
2018-03-03T01:42:34.414Z,18.83
2018-03-03T01:45:02.579Z,18.10
2018-03-03T01:47:30.726Z,20.90
2018-03-03T01:49:59.741Z,18.37
2018-03-03T01:52:27.931Z,19.08
2018-03-03T01:54:56.076Z,20.40
2018-03-03T01:57:24.226Z,18.35
2018-03-03T01:59:52.406Z,21.25
2018-03-03T02:02:21.318Z,18.23
2018-03-03T02:04:49.457Z,20.55
2018-03-03T02:07:17.638Z,20.02
2018-03-03T02:09:46.549Z,19.87
2018-03-03T02:12:15.465Z,19.52
2018-03-03T02:14:43.627Z,18.25
2018-03-03T02:17:11.802Z,19.25
2018-03-03T02:19:40.084Z,19.73
2018-03-03T02:22:08.242Z,17.62
2018-03-03T02:24:36.418Z,18.87
2018-03-03T02:27:04.566Z,20.37
2018-03-03T02:29:33.469Z,19.80
2018-03-03T02:32:01.650Z,18.20
2018-03-03T02:34:29.795Z,16.75
2018-03-03T02:36:58.705Z,18.30
2018-03-03T02:39:26.878Z,22.33
2018-03-03T02:41:55.018Z,18.67
2018-03-03T02:44:23.166Z,18.77
2018-03-03T02:46:51.332Z,18.90
2018-03-03T02:49:19.474Z,19.33
2018-03-03T02:51:47.632Z,19.08
2018-03-03T02:54:16.548Z,17.42
2018-03-03T02:56:44.713Z,17.77
2018-03-03T02:59:12.999Z,18.37
2018-03-03T03:01:41.178Z,16.52
2018-03-03T03:04:09.332Z,19.10
2018-03-03T03:06:37.498Z,17.90
2018-03-03T03:09:05.646Z,17.75
2018-03-03T03:11:33.831Z,19.33
2018-03-03T03:14:02.741Z,17.60
2018-03-03T03:16:30.898Z,18.62
2018-03-03T03:18:59.066Z,18.85
2018-03-03T03:21:28.341Z,17.85
2018-03-03T03:23:56.487Z,17.70
2018-03-03T03:26:24.660Z,18.60
2018-03-03T03:28:52.805Z,19.35
2018-03-03T03:31:20.992Z,18.92
2018-03-03T03:33:49.185Z,19.85
2018-03-03T03:36:17.325Z,18.62
2018-03-03T03:38:45.469Z,18.58
2018-03-03T03:41:14.397Z,18.05
2018-03-03T03:43:42.706Z,17.70
2018-03-03T03:46:10.853Z,18.45
2018-03-03T03:48:39.341Z,18.60
2018-03-03T03:51:07.481Z,18.27
2018-03-03T03:53:35.670Z,19.70
2018-03-03T03:56:03.941Z,18.67
2018-03-03T03:58:32.103Z,18.70
2018-03-03T04:01:00.289Z,19.20
2018-03-03T04:03:28.451Z,18.25
2018-03-03T04:05:56.590Z,17.50
2018-03-03T04:08:25.537Z,19.30
2018-03-03T04:10:53.983Z,18.58
2018-03-03T04:13:22.126Z,20.08
2018-03-03T04:15:50.289Z,20.02
2018-03-03T04:18:18.438Z,17.92
2018-03-03T04:20:46.594Z,17.23
2018-03-03T04:23:14.782Z,17.87
2018-03-03T04:25:42.931Z,17.83
2018-03-03T04:28:11.071Z,17.85
2018-03-03T04:30:39.999Z,18.20
2018-03-03T04:33:08.149Z,18.77
2018-03-03T04:35:36.325Z,18.33
2018-03-03T04:38:04.466Z,18.02
2018-03-03T04:40:32.602Z,19.45
2018-03-03T04:43:00.785Z,17.85
2018-03-03T04:45:28.929Z,19.00
2018-03-03T04:47:57.945Z,18.12
2018-03-03T04:50:26.117Z,18.40
2018-03-03T04:52:54.262Z,17.60
2018-03-03T04:55:22.401Z,20.23
2018-03-03T04:57:51.329Z,16.80
2018-03-03T05:00:25.138Z,18.70
2018-03-03T05:06:05.674Z,18.15
2018-03-03T05:08:39.464Z,17.50
2018-03-03T05:11:17.402Z,16.90
2018-03-03T05:13:46.319Z,18.08
2018-03-03T05:16:20.013Z,17.12
2018-03-03T05:21:55.047Z,20.10
2018-03-03T05:24:30.338Z,18.52
2018-03-03T05:27:04.086Z,17.55
2018-03-03T05:29:38.521Z,16.65
2018-03-03T05:32:12.145Z,18.17
2018-03-03T05:34:44.801Z,17.23
2018-03-03T05:37:18.497Z,17.45
2018-03-03T05:40:01.526Z,18.17
2018-03-03T05:42:35.347Z,17.90
2018-03-03T05:45:09.099Z,20.02
2018-03-03T05:50:59.985Z,17.65
2018-03-03T05:53:33.723Z,17.33
2018-03-03T05:56:02.717Z,16.98
2018-03-03T06:01:33.161Z,19.40
2018-03-03T06:04:07.097Z,17.52
2018-03-03T06:09:43.477Z,19.52
2018-03-03T06:12:12.391Z,18.62
2018-03-03T06:14:40.538Z,18.20
2018-03-03T06:17:09.470Z,17.75
2018-03-03T06:19:37.634Z,18.35
2018-03-03T06:22:05.792Z,16.98
2018-03-03T06:24:33.998Z,17.40
2018-03-03T06:27:02.140Z,18.50
2018-03-03T06:29:30.282Z,18.12
2018-03-03T06:31:59.213Z,18.58
2018-03-03T06:34:27.356Z,18.70
2018-03-03T06:36:56.265Z,17.23
2018-03-03T06:39:24.421Z,17.73
2018-03-03T06:41:52.598Z,18.45
2018-03-03T06:44:20.753Z,19.67
2018-03-03T06:46:49.659Z,16.55
2018-03-03T06:49:17.834Z,20.30
2018-03-03T06:51:46.030Z,17.30
2018-03-03T06:54:14.170Z,18.58
2018-03-03T06:56:43.109Z,19.58
2018-03-03T06:59:11.272Z,17.87
2018-03-03T07:01:39.411Z,19.10
2018-03-03T07:04:07.574Z,17.83
2018-03-03T07:06:36.488Z,17.48
2018-03-03T07:09:04.654Z,19.20
2018-03-03T07:11:32.844Z,19.05
2018-03-03T07:14:00.978Z,18.23
2018-03-03T07:16:29.922Z,18.15
2018-03-03T07:18:58.066Z,17.95
2018-03-03T07:21:27.050Z,19.45
2018-03-03T07:23:55.225Z,17.65
2018-03-03T07:26:23.369Z,19.40
2018-03-03T07:28:51.529Z,20.65
2018-03-03T07:31:19.781Z,18.83
2018-03-03T07:33:47.937Z,18.17
2018-03-03T07:36:16.083Z,18.60
2018-03-03T07:38:44.285Z,17.80
2018-03-03T07:41:12.514Z,18.45
2018-03-03T07:43:41.458Z,19.42
2018-03-03T07:46:09.621Z,18.40
2018-03-03T07:48:37.782Z,19.27
2018-03-03T07:51:06.574Z,19.33
2018-03-03T07:53:34.729Z,23.50
2018-03-03T07:56:03.489Z,26.80
2018-03-03T08:01:28.333Z,23.20
2018-03-03T08:03:56.497Z,18.30
2018-03-03T08:06:25.408Z,18.87
2018-03-03T08:08:53.560Z,20.55
2018-03-03T08:11:21.714Z,18.67
2018-03-03T08:13:50.625Z,19.67
2018-03-03T08:16:18.785Z,16.90
2018-03-03T08:18:48.679Z,18.98
2018-03-03T08:21:16.850Z,19.12
2018-03-03T08:23:44.994Z,18.42
2018-03-03T08:26:13.142Z,18.58
2018-03-03T08:28:41.298Z,17.35
2018-03-03T08:31:10.213Z,17.30
2018-03-03T08:33:38.375Z,17.95
2018-03-03T08:36:06.546Z,17.48
2018-03-03T08:38:34.693Z,16.23
2018-03-03T08:41:03.599Z,16.58
2018-03-03T08:43:31.762Z,15.07
2018-03-03T08:46:00.686Z,17.05
2018-03-03T08:48:28.825Z,16.02
2018-03-03T08:50:57.758Z,16.25
2018-03-03T08:53:25.901Z,16.27
2018-03-03T08:55:54.046Z,15.10
2018-03-03T08:58:22.993Z,14.80
2018-03-03T09:00:51.135Z,14.05
2018-03-03T09:03:19.282Z,14.05
2018-03-03T09:05:47.437Z,15.60
2018-03-03T09:08:15.614Z,14.40
2018-03-03T09:10:43.762Z,15.20
2018-03-03T09:13:11.905Z,15.70
2018-03-03T09:15:40.350Z,16.52
2018-03-03T09:18:08.574Z,17.33
2018-03-03T09:20:36.749Z,16.48
2018-03-03T09:23:05.043Z,15.88
2018-03-03T09:25:33.184Z,17.95
2018-03-03T09:28:01.378Z,15.27
2018-03-03T09:30:29.534Z,16.45
2018-03-03T09:32:57.677Z,18.08
2018-03-03T09:35:26.606Z,19.08
2018-03-03T09:37:54.751Z,16.95
2018-03-03T09:40:22.890Z,17.67
2018-03-03T09:42:51.058Z,31.65
2018-03-03T09:45:19.202Z,27.25
2018-03-03T09:47:47.363Z,16.30
2018-03-03T09:50:15.535Z,14.00
2018-03-03T09:52:43.682Z,15.88
2018-03-03T09:55:12.600Z,14.40
2018-03-03T09:57:40.749Z,14.87
2018-03-03T10:00:08.890Z,15.13
2018-03-03T10:02:37.045Z,17.60
2018-03-03T10:05:05.195Z,16.45
2018-03-03T10:07:33.325Z,14.25
2018-03-03T10:10:02.355Z,15.60
2018-03-03T10:12:30.730Z,16.65
2018-03-03T10:14:58.913Z,15.80
2018-03-03T10:17:27.278Z,15.82
2018-03-03T10:19:55.409Z,17.00
2018-03-03T10:22:24.340Z,17.15
2018-03-03T10:24:52.533Z,18.48
2018-03-03T10:27:20.673Z,18.00
2018-03-03T10:29:48.807Z,17.52
2018-03-03T10:32:16.957Z,17.10
2018-03-03T10:34:45.923Z,17.25
2018-03-03T10:37:14.069Z,18.48
2018-03-03T10:39:42.970Z,18.40
2018-03-03T10:42:11.142Z,19.33
2018-03-03T10:44:39.278Z,17.70
2018-03-03T10:47:07.414Z,18.00
2018-03-03T10:49:35.576Z,18.12
2018-03-03T10:52:03.706Z,18.27
2018-03-03T10:54:32.610Z,17.55
2018-03-03T10:57:02.258Z,17.73
2018-03-03T10:59:30.393Z,16.20
2018-03-03T11:01:58.530Z,17.27
2018-03-03T11:04:26.677Z,17.62
2018-03-03T11:06:54.810Z,16.20
2018-03-03T11:09:22.958Z,16.12
2018-03-03T11:11:51.902Z,17.55
2018-03-03T11:14:20.063Z,16.90
2018-03-03T11:16:48.230Z,22.27
2018-03-03T11:19:16.366Z,18.55
2018-03-03T11:21:45.282Z,28.38
2018-03-03T11:24:13.438Z,20.58
2018-03-03T11:26:42.578Z,21.10
2018-03-03T11:29:10.713Z,19.55
2018-03-03T11:31:39.645Z,19.35
2018-03-03T11:34:07.826Z,22.55
2018-03-03T11:36:35.981Z,18.40
2018-03-03T11:39:04.141Z,16.97
2018-03-03T11:41:32.282Z,18.40
2018-03-03T11:44:01.173Z,21.33
2018-03-03T11:46:30.108Z,22.40
2018-03-03T11:48:58.243Z,17.33
2018-03-03T11:51:27.151Z,19.17
2018-03-03T11:53:55.325Z,24.23
2018-03-03T11:56:23.515Z,20.10
2018-03-03T11:58:51.690Z,18.20
2018-03-03T12:01:19.833Z,22.27
2018-03-03T12:03:47.970Z,22.20
2018-03-03T12:06:16.207Z,18.40
2018-03-03T12:08:44.340Z,25.33
2018-03-03T12:11:13.242Z,21.10
2018-03-03T12:13:42.155Z,17.37
2018-03-03T12:16:10.328Z,21.20
2018-03-03T12:18:38.466Z,18.60
2018-03-03T12:21:07.369Z,26.67
2018-03-03T12:23:35.538Z,22.50
2018-03-03T12:26:04.453Z,19.33
2018-03-03T12:28:32.614Z,26.23
2018-03-03T12:31:00.769Z,19.93
2018-03-03T12:33:29.669Z,20.70
2018-03-03T12:35:57.910Z,18.17
2018-03-03T12:38:26.090Z,18.73
2018-03-03T12:40:54.256Z,19.57
2018-03-03T12:43:22.389Z,18.10
2018-03-03T12:45:50.522Z,19.47
2018-03-03T12:48:19.960Z,20.27
2018-03-03T12:50:48.262Z,20.17
2018-03-03T12:53:16.407Z,18.57
2018-03-03T12:55:44.557Z,18.23
2018-03-03T12:58:12.754Z,19.30
2018-03-03T13:00:40.910Z,20.23
2018-03-03T13:03:09.050Z,18.37
2018-03-03T13:05:37.970Z,19.40
2018-03-03T13:08:06.164Z,17.50
2018-03-03T13:10:34.298Z,17.03
2018-03-03T13:13:03.223Z,17.37
2018-03-03T13:15:31.355Z,17.07
2018-03-03T13:18:00.274Z,17.03
2018-03-03T13:20:28.410Z,16.90
2018-03-03T13:22:56.545Z,18.53
2018-03-03T13:25:24.706Z,16.03
2018-03-03T13:27:52.851Z,17.80
2018-03-03T13:30:20.991Z,17.10
2018-03-03T13:32:49.166Z,16.30
2018-03-03T13:35:17.298Z,20.67
2018-03-03T13:37:45.445Z,22.67
2018-03-03T13:40:13.608Z,20.63
2018-03-03T13:42:42.510Z,23.90
2018-03-03T13:45:11.162Z,35.20
2018-03-03T13:47:39.338Z,24.20
2018-03-03T13:50:07.475Z,25.27
2018-03-03T13:52:35.634Z,24.60
2018-03-03T13:55:03.798Z,19.53
2018-03-03T13:57:31.930Z,18.57
2018-03-03T14:00:00.844Z,19.27
2018-03-03T14:02:29.627Z,19.77
2018-03-03T14:04:57.773Z,19.50
2018-03-03T14:07:25.909Z,21.00
2018-03-03T14:09:54.059Z,19.40
2018-03-03T14:12:22.230Z,20.17
2018-03-03T14:14:50.362Z,21.00
2018-03-03T14:17:18.502Z,19.87
2018-03-03T14:19:46.657Z,20.60
2018-03-03T14:22:14.802Z,20.83
2018-03-03T14:24:43.738Z,21.37
2018-03-03T14:27:11.881Z,21.20
2018-03-03T14:29:40.039Z,19.97
2018-03-03T14:32:08.205Z,19.10
2018-03-03T14:34:37.138Z,19.87
2018-03-03T14:37:05.302Z,19.30
2018-03-03T14:39:33.561Z,19.00
2018-03-03T14:42:01.730Z,19.47
2018-03-03T14:44:29.865Z,17.53
2018-03-03T14:46:58.000Z,19.63
2018-03-03T14:49:26.263Z,19.20
2018-03-03T14:51:54.403Z,20.83
2018-03-03T14:54:23.313Z,22.00
2018-03-03T14:56:51.482Z,18.67
2018-03-03T14:59:19.682Z,19.23
2018-03-03T15:01:47.818Z,18.20
2018-03-03T15:04:16.742Z,22.47
2018-03-03T15:06:44.906Z,19.87
2018-03-03T15:09:13.038Z,19.83
2018-03-03T15:11:41.977Z,23.03
2018-03-03T15:14:10.139Z,26.60
2018-03-03T15:16:38.289Z,20.90
2018-03-03T15:19:07.186Z,24.70
2018-03-03T15:21:35.422Z,20.83
2018-03-03T15:24:03.668Z,21.53
2018-03-03T15:26:31.814Z,20.97
2018-03-03T15:29:00.011Z,30.27
2018-03-03T15:31:28.185Z,19.83
2018-03-03T15:33:56.323Z,22.07
2018-03-03T15:36:24.781Z,21.03
2018-03-03T15:38:53.001Z,20.80
2018-03-03T15:41:21.138Z,19.67
2018-03-03T15:43:50.059Z,22.20
2018-03-03T15:46:18.200Z,22.03
2018-03-03T15:48:47.133Z,22.93
2018-03-03T15:51:15.279Z,22.57
2018-03-03T15:53:43.415Z,19.90
2018-03-03T15:56:11.562Z,21.70
2018-03-03T15:58:39.719Z,20.50
2018-03-03T16:01:07.858Z,21.73
2018-03-03T16:03:36.784Z,19.87
2018-03-03T16:06:04.930Z,20.50
2018-03-03T16:08:33.089Z,24.15
2018-03-03T16:11:02.016Z,19.80
2018-03-03T16:13:30.150Z,19.50
2018-03-03T16:15:58.298Z,21.23
2018-03-03T16:18:26.453Z,18.35
2018-03-03T16:20:54.586Z,21.23
2018-03-03T16:23:22.758Z,19.33
2018-03-03T16:25:50.950Z,18.30
2018-03-03T16:28:19.087Z,20.35
2018-03-03T16:30:47.241Z,18.87
2018-03-03T16:33:15.375Z,24.70
2018-03-03T16:35:43.537Z,24.02
2018-03-03T16:38:11.671Z,20.45
2018-03-03T16:40:40.589Z,21.87
2018-03-03T16:43:08.754Z,23.05
2018-03-03T16:45:36.890Z,33.35
2018-03-03T16:48:05.117Z,39.70
2018-03-03T16:50:33.298Z,27.62
2018-03-03T16:53:01.437Z,20.62
2018-03-03T16:55:29.638Z,17.40
2018-03-03T16:57:57.794Z,16.23
2018-03-03T17:00:25.982Z,16.98
2018-03-03T17:02:54.173Z,23.58
2018-03-03T17:05:22.319Z,53.40
2018-03-03T17:07:50.459Z,44.40
2018-03-03T17:10:19.366Z,41.67
2018-03-03T17:12:47.680Z,34.20
2018-03-03T17:15:15.837Z,30.50
2018-03-03T17:17:43.982Z,32.67
2018-03-03T17:20:13.189Z,23.20
2018-03-03T17:22:41.334Z,20.33
2018-03-03T17:25:09.474Z,20.00
2018-03-03T17:27:37.642Z,19.77
2018-03-03T17:30:05.795Z,22.58
2018-03-03T17:32:34.034Z,24.00
2018-03-03T17:35:02.972Z,20.45
2018-03-03T17:37:31.114Z,19.65
2018-03-03T17:39:59.982Z,19.33
2018-03-03T17:42:28.927Z,18.90
2018-03-03T17:44:57.100Z,18.00
2018-03-03T17:47:25.249Z,17.67
2018-03-03T17:49:54.117Z,17.95
2018-03-03T17:52:23.037Z,18.12
2018-03-03T17:54:51.182Z,15.32
2018-03-03T17:57:20.118Z,21.05
2018-03-03T17:59:48.276Z,22.40
2018-03-03T18:02:16.450Z,19.27
2018-03-03T18:04:44.626Z,18.55
2018-03-03T18:07:12.808Z,20.33
2018-03-03T18:09:40.977Z,18.17
2018-03-03T18:12:09.115Z,19.67
2018-03-03T18:14:37.294Z,17.17
2018-03-03T18:17:05.442Z,18.05
2018-03-03T18:19:35.990Z,18.70
2018-03-03T18:22:04.159Z,19.75
2018-03-03T18:24:37.161Z,19.08
2018-03-03T18:27:05.338Z,18.98
2018-03-03T18:29:33.481Z,17.48
2018-03-03T18:32:02.554Z,17.12
2018-03-03T18:34:30.738Z,17.00
2018-03-03T18:36:58.905Z,16.10
2018-03-03T18:39:27.052Z,16.98
2018-03-03T18:41:55.220Z,16.60
2018-03-03T18:44:23.387Z,16.45
2018-03-03T18:46:51.581Z,15.05
2018-03-03T18:49:19.722Z,17.35
2018-03-03T18:51:47.865Z,19.00
2018-03-03T18:54:16.809Z,20.67
2018-03-03T18:56:44.965Z,19.17
2018-03-03T18:59:13.122Z,18.20
2018-03-03T19:01:41.284Z,15.88
2018-03-03T19:04:09.449Z,15.98
2018-03-03T19:06:37.597Z,17.45
2018-03-03T19:09:05.776Z,15.82
2018-03-03T19:11:34.813Z,16.85
2018-03-03T19:14:03.087Z,17.25
2018-03-03T19:16:31.282Z,17.67
2018-03-03T19:18:59.498Z,17.30
2018-03-03T19:21:28.440Z,16.48
2018-03-03T19:23:57.508Z,15.98
2018-03-03T19:26:25.692Z,17.20
2018-03-03T19:28:53.874Z,17.37
2018-03-03T19:31:22.035Z,16.55
2018-03-03T19:33:50.203Z,17.20
2018-03-03T19:36:18.402Z,16.17
2018-03-03T19:38:46.574Z,17.48
2018-03-03T19:41:14.841Z,15.57
2018-03-03T19:43:43.010Z,17.00
2018-03-03T19:46:11.155Z,17.02
2018-03-03T19:48:39.302Z,16.70
2018-03-03T19:51:07.483Z,16.08
2018-03-03T19:53:36.421Z,16.30
2018-03-03T19:56:04.606Z,16.05
2018-03-03T19:58:32.784Z,16.70
2018-03-03T20:01:00.943Z,15.57
2018-03-03T20:03:29.090Z,16.00
2018-03-03T20:05:57.270Z,16.60
2018-03-03T20:08:25.414Z,15.27
2018-03-03T20:10:54.327Z,15.70
2018-03-03T20:13:22.708Z,15.65
2018-03-03T20:15:50.853Z,15.32
2018-03-03T20:18:19.767Z,15.85
2018-03-03T20:20:47.938Z,15.90
2018-03-03T20:23:16.087Z,18.30
2018-03-03T20:25:44.993Z,17.33
2018-03-03T20:28:13.158Z,14.75
2018-03-03T20:30:42.121Z,15.30
2018-03-03T20:33:10.347Z,14.30
2018-03-03T20:35:38.611Z,15.68
2018-03-03T20:38:06.817Z,15.25
2018-03-03T20:40:34.966Z,13.80
2018-03-03T20:43:03.120Z,14.20
2018-03-03T20:45:32.066Z,15.00
2018-03-03T20:48:00.233Z,16.35
2018-03-03T20:50:28.373Z,19.37
2018-03-03T20:52:56.550Z,20.02
2018-03-03T20:55:24.694Z,22.58
2018-03-03T20:57:53.601Z,19.90
2018-03-03T21:00:21.772Z,18.50
2018-03-03T21:02:49.968Z,18.05
2018-03-03T21:05:18.856Z,18.85
2018-03-03T21:07:47.044Z,15.00
2018-03-03T21:10:15.195Z,16.52
2018-03-03T21:12:43.368Z,15.98
2018-03-03T21:15:11.531Z,15.45
2018-03-03T21:17:39.678Z,16.20
2018-03-03T21:20:08.596Z,17.05
2018-03-03T21:22:36.757Z,18.27
2018-03-03T21:25:04.936Z,17.52
2018-03-03T21:27:33.079Z,18.90
2018-03-03T21:30:01.225Z,17.12
2018-03-03T21:32:29.381Z,16.65
2018-03-03T21:34:57.552Z,23.83
2018-03-03T21:37:25.820Z,26.40
2018-03-03T21:39:53.966Z,32.67
2018-03-03T21:42:22.120Z,37.47
2018-03-03T21:44:51.075Z,47.30
2018-03-03T21:47:19.218Z,30.15
2018-03-03T21:49:47.362Z,35.05
2018-03-03T21:52:16.302Z,26.52
2018-03-03T21:54:44.446Z,27.52
2018-03-03T21:57:12.590Z,30.50
2018-03-03T21:59:41.531Z,37.30
2018-03-03T22:02:09.678Z,31.37
2018-03-03T22:04:37.823Z,35.05
2018-03-03T22:07:05.998Z,28.48
2018-03-03T22:09:34.947Z,26.60
2018-03-03T22:12:03.114Z,23.05
2018-03-03T22:14:31.287Z,25.58
2018-03-03T22:16:59.435Z,28.35
2018-03-03T22:19:27.593Z,36.38
2018-03-03T22:21:56.511Z,30.88
2018-03-03T22:24:24.683Z,29.45
2018-03-03T22:26:52.859Z,33.63
2018-03-03T22:29:21.002Z,28.52
2018-03-03T22:31:49.954Z,26.42
2018-03-03T22:34:18.098Z,27.33
2018-03-03T22:36:46.258Z,27.00
2018-03-03T22:39:14.431Z,25.20
2018-03-03T22:41:42.582Z,18.92
2018-03-03T22:44:11.496Z,19.15
2018-03-03T22:46:39.675Z,19.70
2018-03-03T22:49:07.821Z,20.48
2018-03-03T22:51:36.740Z,23.52
2018-03-03T22:54:04.915Z,22.42
2018-03-03T22:56:33.063Z,20.90
2018-03-03T22:59:01.266Z,23.05
2018-03-03T23:01:29.437Z,21.20
2018-03-03T23:03:57.578Z,18.85
2018-03-03T23:06:25.722Z,17.27
2018-03-03T23:08:53.889Z,18.85
2018-03-03T23:11:22.034Z,21.00
2018-03-03T23:13:50.189Z,19.12
2018-03-03T23:16:18.352Z,19.35
2018-03-03T23:18:46.493Z,18.15
2018-03-03T23:21:15.441Z,19.15
2018-03-03T23:23:43.591Z,18.10
2018-03-03T23:26:11.734Z,21.30
2018-03-03T23:28:40.682Z,20.77
2018-03-03T23:31:08.840Z,19.48
2018-03-03T23:33:36.987Z,17.77
2018-03-03T23:36:05.162Z,18.83
2018-03-03T23:38:33.310Z,18.08
2018-03-03T23:41:02.222Z,17.73
2018-03-03T23:43:30.391Z,18.52
2018-03-03T23:45:58.543Z,17.60
2018-03-03T23:48:26.687Z,19.30
2018-03-03T23:50:54.841Z,21.35
2018-03-03T23:53:22.982Z,20.15
2018-03-03T23:55:51.181Z,18.00
2018-03-03T23:58:19.334Z,17.80
